createdAt,value
2022-11-09T00:02:11.687Z,12.22
2022-11-09T00:04:38.015Z,12.20
2022-11-09T00:07:04.411Z,12.17
2022-11-09T00:09:30.801Z,12.16
2022-11-09T00:11:57.009Z,12.16
2022-11-09T00:14:23.333Z,12.17
2022-11-09T00:16:50.702Z,12.17
2022-11-09T00:19:17.069Z,12.16
2022-11-09T00:21:43.391Z,12.16
2022-11-09T00:24:09.711Z,12.15
2022-11-09T00:26:36.071Z,12.14
2022-11-09T00:29:02.411Z,12.14
2022-11-09T00:31:28.772Z,12.13
2022-11-09T00:33:55.109Z,12.15
2022-11-09T00:36:21.428Z,12.15
2022-11-09T00:38:47.803Z,12.14
2022-11-09T00:41:14.127Z,12.13
2022-11-09T00:44:07.718Z,12.14
2022-11-09T00:46:32.271Z,12.11
2022-11-09T00:51:33.922Z,12.08
2022-11-09T00:54:03.372Z,12.09
2022-11-09T00:56:26.682Z,12.08
2022-11-09T00:58:54.007Z,12.08
2022-11-09T01:01:19.418Z,12.08
2022-11-09T01:03:45.709Z,12.09
2022-11-09T01:06:12.122Z,12.10
2022-11-09T01:08:38.441Z,12.10
2022-11-09T01:11:04.768Z,12.11
2022-11-09T01:13:31.190Z,12.11
2022-11-09T01:15:57.544Z,12.12
2022-11-09T01:18:24.017Z,12.12
2022-11-09T01:20:50.351Z,12.12
2022-11-09T01:23:16.892Z,12.09
2022-11-09T01:25:43.069Z,12.07
2022-11-09T01:28:11.315Z,12.08
2022-11-09T01:30:35.736Z,12.08
2022-11-09T01:33:02.164Z,12.07
2022-11-09T01:35:28.527Z,12.06
2022-11-09T01:37:58.651Z,12.08
2022-11-09T01:40:24.959Z,12.09
2022-11-09T01:42:50.008Z,12.10
2022-11-09T01:45:16.361Z,12.10
2022-11-09T01:47:42.689Z,12.11
2022-11-09T01:50:09.054Z,12.10
2022-11-09T01:52:35.377Z,12.10
2022-11-09T01:55:01.723Z,12.10
2022-11-09T01:57:28.112Z,12.10
2022-11-09T01:59:54.447Z,12.10
2022-11-09T02:02:20.771Z,12.12
2022-11-09T02:04:47.129Z,12.15
2022-11-09T02:07:13.560Z,12.13
2022-11-09T02:09:39.850Z,12.12
2022-11-09T02:12:06.194Z,12.11
2022-11-09T02:14:32.502Z,12.10
2022-11-09T02:16:58.842Z,12.11
2022-11-09T02:19:25.178Z,12.14
2022-11-09T02:21:51.528Z,12.15
2022-11-09T02:24:17.873Z,12.16
2022-11-09T02:26:44.208Z,12.17
2022-11-09T02:29:10.552Z,12.18
2022-11-09T02:31:36.906Z,12.18
2022-11-09T02:34:03.243Z,12.19
2022-11-09T02:36:29.607Z,12.20
2022-11-09T02:38:55.916Z,12.22
2022-11-09T02:41:22.253Z,12.22
2022-11-09T02:43:48.612Z,12.22
2022-11-09T02:46:14.956Z,12.23
2022-11-09T02:48:41.302Z,12.22
2022-11-09T02:51:07.673Z,12.21
2022-11-09T02:53:33.987Z,12.19
2022-11-09T02:56:00.310Z,12.16
2022-11-09T02:58:26.635Z,12.17
2022-11-09T03:00:53.046Z,12.16
2022-11-09T03:03:19.691Z,12.16
2022-11-09T03:05:45.665Z,12.13
2022-11-09T03:08:12.003Z,12.12
2022-11-09T03:10:38.399Z,12.11
2022-11-09T03:13:04.715Z,12.11
2022-11-09T03:15:31.027Z,12.12
2022-11-09T03:17:57.377Z,12.10
2022-11-09T03:20:23.703Z,12.08
2022-11-09T03:22:50.042Z,12.08
2022-11-09T03:25:16.495Z,12.09
2022-11-09T03:27:42.777Z,12.11
2022-11-09T03:30:09.145Z,12.10
2022-11-09T03:32:35.465Z,12.08
2022-11-09T03:35:01.789Z,12.07
2022-11-09T03:37:28.158Z,12.06
2022-11-09T03:39:54.473Z,12.05
2022-11-09T03:42:20.855Z,12.02
2022-11-09T03:44:47.177Z,11.97
2022-11-09T03:47:13.499Z,11.92
2022-11-09T03:49:39.827Z,11.90
2022-11-09T03:52:06.189Z,11.89
2022-11-09T03:54:32.541Z,11.87
2022-11-09T03:56:58.834Z,11.86
2022-11-09T03:59:25.390Z,11.84
2022-11-09T04:01:51.657Z,11.82
2022-11-09T04:04:17.978Z,11.80
2022-11-09T04:06:44.392Z,11.77
2022-11-09T04:09:10.654Z,11.75
2022-11-09T04:11:36.976Z,11.72
2022-11-09T04:14:03.304Z,11.70
2022-11-09T04:16:29.644Z,11.70
2022-11-09T04:18:55.975Z,11.67
2022-11-09T04:21:30.720Z,11.66
2022-11-09T04:23:58.382Z,11.63
2022-11-09T04:26:25.766Z,11.60
2022-11-09T04:28:51.109Z,11.58
2022-11-09T04:31:17.445Z,11.56
2022-11-09T04:33:43.769Z,11.54
2022-11-09T04:36:10.082Z,11.51
2022-11-09T04:38:36.455Z,11.49
2022-11-09T04:41:02.767Z,11.47
2022-11-09T04:43:29.093Z,11.45
2022-11-09T04:45:55.418Z,11.42
2022-11-09T04:48:21.755Z,11.41
2022-11-09T04:50:48.131Z,11.41
2022-11-09T04:53:14.478Z,11.39
2022-11-09T04:55:40.820Z,11.37
2022-11-09T04:58:07.164Z,11.35
2022-11-09T05:00:33.500Z,11.33
2022-11-09T05:02:59.851Z,11.33
2022-11-09T05:05:26.239Z,11.34
2022-11-09T05:07:52.655Z,11.33
2022-11-09T05:10:19.008Z,11.30
2022-11-09T05:12:46.087Z,11.30
2022-11-09T05:15:11.621Z,11.30
2022-11-09T05:17:37.962Z,11.31
2022-11-09T05:20:04.301Z,11.31
2022-11-09T05:22:30.667Z,11.30
2022-11-09T05:24:57.004Z,11.31
2022-11-09T05:27:23.347Z,11.32
2022-11-09T05:29:49.695Z,11.35
2022-11-09T05:32:16.020Z,11.36
2022-11-09T05:34:42.379Z,11.37
2022-11-09T05:37:08.722Z,11.37
2022-11-09T05:39:35.077Z,11.37
2022-11-09T05:42:01.444Z,11.36
2022-11-09T05:44:27.779Z,11.35
2022-11-09T05:46:54.098Z,11.33
2022-11-09T05:49:20.473Z,11.34
2022-11-09T05:51:46.827Z,11.34
2022-11-09T05:54:13.130Z,11.36
2022-11-09T05:56:39.537Z,11.37
2022-11-09T05:59:05.881Z,11.36
2022-11-09T06:01:32.200Z,11.37
2022-11-09T06:03:58.557Z,11.38
2022-11-09T06:06:24.918Z,11.41
2022-11-09T06:08:51.234Z,11.45
2022-11-09T06:11:23.599Z,11.47
2022-11-09T06:13:43.987Z,11.50
2022-11-09T06:16:10.575Z,11.55
2022-11-09T06:18:36.955Z,11.63
2022-11-09T06:21:03.299Z,11.74
2022-11-09T06:23:29.738Z,11.80
2022-11-09T06:25:56.126Z,11.88
2022-11-09T06:28:22.441Z,11.95
2022-11-09T06:30:48.827Z,11.97
2022-11-09T06:33:15.179Z,11.98
2022-11-09T06:35:41.510Z,12.05
2022-11-09T06:38:07.856Z,12.18
2022-11-09T06:40:34.197Z,12.44
2022-11-09T06:43:00.529Z,12.77
2022-11-09T06:45:26.870Z,13.14
2022-11-09T06:47:53.244Z,13.59
2022-11-09T06:50:19.611Z,14.05
2022-11-09T06:52:45.917Z,14.51
2022-11-09T06:55:12.247Z,14.79
2022-11-09T06:57:38.602Z,14.98
2022-11-09T07:00:04.897Z,15.13
2022-11-09T07:02:31.273Z,15.47
2022-11-09T07:04:57.620Z,16.15
2022-11-09T07:07:27.922Z,16.74
2022-11-09T07:09:50.317Z,17.17
2022-11-09T07:12:16.642Z,17.42
2022-11-09T07:14:42.985Z,17.77
2022-11-09T07:17:09.340Z,18.00
2022-11-09T07:19:35.682Z,18.12
2022-11-09T07:22:02.035Z,18.25
2022-11-09T07:24:28.366Z,18.37
2022-11-09T07:26:54.701Z,18.54
2022-11-09T07:29:21.019Z,18.77
2022-11-09T07:31:47.371Z,19.12
2022-11-09T07:34:13.745Z,19.32
2022-11-09T07:36:40.096Z,19.50
2022-11-09T07:39:06.451Z,19.63
2022-11-09T07:41:34.828Z,19.82
2022-11-09T07:43:59.103Z,19.86
2022-11-09T07:46:25.453Z,19.77
2022-11-09T07:48:51.843Z,19.62
2022-11-09T07:51:18.158Z,19.48
2022-11-09T07:53:44.498Z,19.39
2022-11-09T07:56:11.020Z,19.47
2022-11-09T07:58:37.484Z,19.61
2022-11-09T08:01:03.864Z,19.75
2022-11-09T08:03:30.200Z,19.86
2022-11-09T08:05:57.087Z,19.93
2022-11-09T08:08:23.477Z,20.08
2022-11-09T08:10:49.823Z,20.18
2022-11-09T08:13:16.139Z,20.40
2022-11-09T08:15:42.492Z,20.53
2022-11-09T08:18:08.841Z,20.87
2022-11-09T08:20:35.170Z,20.97
2022-11-09T08:23:04.657Z,21.10
2022-11-09T08:25:27.835Z,21.28
2022-11-09T08:27:54.177Z,21.39
2022-11-09T08:30:20.537Z,21.55
2022-11-09T08:32:46.879Z,21.65
2022-11-09T08:35:13.235Z,21.81
2022-11-09T08:37:39.530Z,22.04
2022-11-09T08:40:05.869Z,22.24
2022-11-09T08:42:32.321Z,22.45
2022-11-09T08:44:58.696Z,22.50
2022-11-09T08:47:25.039Z,22.66
2022-11-09T08:49:51.362Z,22.73
2022-11-09T08:52:17.715Z,22.84
2022-11-09T08:54:44.212Z,22.93
2022-11-09T08:57:10.554Z,22.95
2022-11-09T08:59:36.878Z,23.11
2022-11-09T09:02:03.299Z,23.36
2022-11-09T09:04:29.628Z,23.57
2022-11-09T09:06:56.000Z,23.72
2022-11-09T09:09:22.285Z,23.91
2022-11-09T09:11:48.605Z,24.13
2022-11-09T09:14:15.026Z,24.25
2022-11-09T09:16:41.369Z,24.47
2022-11-09T09:19:07.747Z,24.70
2022-11-09T09:21:34.071Z,24.84
2022-11-09T09:24:00.420Z,24.99
2022-11-09T09:26:26.777Z,25.03
2022-11-09T09:28:53.122Z,25.11
2022-11-09T09:31:19.442Z,25.18
2022-11-09T09:33:45.766Z,25.28
2022-11-09T09:36:12.104Z,25.39
2022-11-09T09:38:38.468Z,25.63
2022-11-09T09:41:04.823Z,25.71
2022-11-09T09:43:31.171Z,25.66
2022-11-09T09:45:57.531Z,25.72
2022-11-09T09:48:23.892Z,25.80
2022-11-09T09:50:50.217Z,25.94
2022-11-09T09:53:25.178Z,26.06
2022-11-09T09:55:42.899Z,26.23
2022-11-09T09:58:09.242Z,26.41
2022-11-09T10:00:35.592Z,26.58
2022-11-09T10:03:01.919Z,26.62
2022-11-09T10:05:28.241Z,26.65
2022-11-09T10:07:54.633Z,26.84
2022-11-09T10:10:20.978Z,27.05
2022-11-09T10:12:47.318Z,27.22
2022-11-09T10:15:13.642Z,27.32
2022-11-09T10:17:39.989Z,27.42
2022-11-09T10:20:06.308Z,27.30
2022-11-09T10:22:32.654Z,27.09
2022-11-09T10:25:20.746Z,26.75
2022-11-09T10:27:25.349Z,26.58
2022-11-09T10:29:51.671Z,26.52
2022-11-09T10:32:18.031Z,26.58
2022-11-09T10:34:44.362Z,26.46
2022-11-09T10:37:10.731Z,26.48
2022-11-09T10:39:37.076Z,26.55
2022-11-09T10:42:03.416Z,26.56
2022-11-09T10:44:29.796Z,26.54
2022-11-09T10:46:56.168Z,26.50
2022-11-09T10:49:22.501Z,26.60
2022-11-09T10:51:48.835Z,26.63
2022-11-09T10:54:15.176Z,26.75
2022-11-09T10:57:00.593Z,26.97
2022-11-09T10:59:07.870Z,27.21
2022-11-09T11:01:34.275Z,27.39
2022-11-09T11:04:00.570Z,27.60
2022-11-09T11:06:26.893Z,27.72
2022-11-09T11:08:53.295Z,27.79
2022-11-09T11:11:33.374Z,27.95
2022-11-09T11:13:45.948Z,28.06
2022-11-09T11:16:12.438Z,28.05
2022-11-09T11:18:38.604Z,28.04
2022-11-09T11:21:04.953Z,28.15
2022-11-09T11:23:31.269Z,28.15
2022-11-09T11:25:57.655Z,28.09
2022-11-09T11:28:23.973Z,27.98
2022-11-09T11:30:50.323Z,28.01
2022-11-09T11:33:16.675Z,27.98
2022-11-09T11:35:43.016Z,28.00
2022-11-09T11:38:09.340Z,28.13
2022-11-09T11:40:35.709Z,28.21
2022-11-09T11:43:02.071Z,28.27
2022-11-09T11:45:43.679Z,28.22
2022-11-09T11:47:54.728Z,28.13
2022-11-09T11:50:21.090Z,28.02
2022-11-09T11:52:47.466Z,27.97
2022-11-09T11:55:13.773Z,27.88
2022-11-09T11:57:40.119Z,27.85
2022-11-09T12:00:06.452Z,27.81
2022-11-09T12:02:32.819Z,27.74
2022-11-09T12:04:59.126Z,27.74
2022-11-09T12:07:25.531Z,27.75
2022-11-09T12:09:51.831Z,27.79
2022-11-09T12:12:18.170Z,27.79
2022-11-09T12:14:44.518Z,27.69
2022-11-09T12:17:10.858Z,27.40
2022-11-09T12:19:37.252Z,27.27
2022-11-09T12:22:03.602Z,27.18
2022-11-09T12:24:29.931Z,27.18
2022-11-09T12:27:17.847Z,27.05
2022-11-09T12:29:22.604Z,27.02
2022-11-09T12:31:48.946Z,27.05
2022-11-09T12:34:15.304Z,26.88
2022-11-09T12:36:41.649Z,26.76
2022-11-09T12:39:07.990Z,26.63
2022-11-09T12:41:34.308Z,26.64
2022-11-09T12:44:00.639Z,26.68
2022-11-09T12:46:26.979Z,26.68
2022-11-09T12:48:53.327Z,26.69
2022-11-09T12:51:19.667Z,26.62
2022-11-09T12:53:45.984Z,26.52
2022-11-09T12:56:12.434Z,26.44
2022-11-09T12:58:38.696Z,26.39
2022-11-09T13:01:05.024Z,26.39
2022-11-09T13:03:31.376Z,26.36
2022-11-09T13:06:02.371Z,26.30
2022-11-09T13:08:24.082Z,26.27
2022-11-09T13:10:50.479Z,26.20
2022-11-09T13:13:16.744Z,26.13
2022-11-09T13:15:43.085Z,26.04
2022-11-09T13:18:10.665Z,26.02
2022-11-09T13:23:03.327Z,25.94
2022-11-09T13:25:30.574Z,25.84
2022-11-09T13:27:56.944Z,25.68
2022-11-09T13:30:23.270Z,25.63
2022-11-09T13:32:49.600Z,25.55
2022-11-09T13:35:15.946Z,25.37
2022-11-09T13:37:42.316Z,25.09
2022-11-09T13:40:08.627Z,24.95
2022-11-09T13:42:34.965Z,24.80
2022-11-09T13:45:01.318Z,24.73
2022-11-09T13:47:27.666Z,24.49
2022-11-09T13:49:54.012Z,24.39
2022-11-09T13:52:20.400Z,24.35
2022-11-09T13:54:46.738Z,24.19
2022-11-09T13:57:13.115Z,24.13
2022-11-09T13:59:39.463Z,24.10
2022-11-09T14:02:05.863Z,24.03
2022-11-09T14:04:32.106Z,23.87
2022-11-09T14:06:58.481Z,23.73
2022-11-09T14:09:24.795Z,23.58
2022-11-09T14:11:51.169Z,23.40
2022-11-09T14:14:17.520Z,23.24
2022-11-09T14:16:43.851Z,23.08
2022-11-09T14:19:10.198Z,22.98
2022-11-09T14:21:36.520Z,22.74
2022-11-09T14:24:02.907Z,22.49
2022-11-09T14:26:29.249Z,22.34
2022-11-09T14:28:55.698Z,22.20
2022-11-09T14:31:22.033Z,22.02
2022-11-09T14:33:48.385Z,21.93
2022-11-09T14:36:14.726Z,21.84
2022-11-09T14:38:41.046Z,21.79
2022-11-09T14:41:07.392Z,21.76
2022-11-09T14:43:33.707Z,21.72
2022-11-09T14:46:00.183Z,21.58
2022-11-09T14:48:26.378Z,21.45
2022-11-09T14:50:52.722Z,21.33
2022-11-09T14:53:19.047Z,21.22
2022-11-09T14:55:45.424Z,21.14
2022-11-09T14:58:11.736Z,21.08
2022-11-09T15:00:41.849Z,21.00
2022-11-09T15:03:04.399Z,20.97
2022-11-09T15:05:30.750Z,20.90
2022-11-09T15:07:57.089Z,20.94
2022-11-09T15:10:23.440Z,20.87
2022-11-09T15:12:49.761Z,20.78
2022-11-09T15:15:16.100Z,20.73
2022-11-09T15:17:42.456Z,20.66
2022-11-09T15:20:08.806Z,20.56
2022-11-09T15:22:35.158Z,20.47
2022-11-09T15:25:01.536Z,20.40
2022-11-09T15:27:27.881Z,20.36
2022-11-09T15:29:54.225Z,20.27
2022-11-09T15:32:20.600Z,20.20
2022-11-09T15:34:46.981Z,20.15
2022-11-09T15:37:13.315Z,20.14
2022-11-09T15:39:39.644Z,20.09
2022-11-09T15:42:05.987Z,20.01
2022-11-09T15:44:33.450Z,19.96
2022-11-09T15:46:59.759Z,19.91
2022-11-09T15:49:26.186Z,19.79
2022-11-09T15:51:52.499Z,19.74
2022-11-09T15:54:18.840Z,19.67
2022-11-09T15:56:45.208Z,19.57
2022-11-09T15:59:11.555Z,19.49
2022-11-09T16:01:37.944Z,19.41
2022-11-09T16:04:04.357Z,19.37
2022-11-09T16:06:30.690Z,19.31
2022-11-09T16:08:56.981Z,19.25
2022-11-09T16:11:23.325Z,19.20
2022-11-09T16:13:49.647Z,19.18
2022-11-09T16:16:16.001Z,19.13
2022-11-09T16:18:42.374Z,19.09
2022-11-09T16:21:08.698Z,19.06
2022-11-09T16:23:35.021Z,19.05
2022-11-09T16:26:01.398Z,18.99
2022-11-09T16:28:27.751Z,18.89
2022-11-09T16:30:54.064Z,18.83
2022-11-09T16:33:20.413Z,18.74
2022-11-09T16:35:46.905Z,18.73
2022-11-09T16:38:13.117Z,18.71
2022-11-09T16:40:39.428Z,18.61
2022-11-09T16:43:05.842Z,18.43
2022-11-09T16:45:33.737Z,18.33
2022-11-09T16:47:58.512Z,18.30
2022-11-09T16:50:24.848Z,18.22
2022-11-09T16:52:51.175Z,18.12
2022-11-09T16:55:17.493Z,18.06
2022-11-09T16:57:43.863Z,18.06
2022-11-09T17:00:10.406Z,18.05
2022-11-09T17:02:36.730Z,18.01
2022-11-09T17:05:03.054Z,17.96
2022-11-09T17:07:29.401Z,17.91
2022-11-09T17:09:55.747Z,17.86
2022-11-09T17:12:22.068Z,17.85
2022-11-09T17:14:48.453Z,17.82
2022-11-09T17:17:19.615Z,17.77
2022-11-09T17:19:41.116Z,17.72
2022-11-09T17:22:07.479Z,17.60
2022-11-09T17:24:33.825Z,17.50
2022-11-09T17:27:00.163Z,17.49
2022-11-09T17:29:26.553Z,17.56
2022-11-09T17:31:52.867Z,17.56
2022-11-09T17:34:19.320Z,17.46
2022-11-09T17:39:12.016Z,17.34
2022-11-09T17:41:42.447Z,17.27
2022-11-09T17:44:04.695Z,17.25
2022-11-09T17:46:31.018Z,17.17
2022-11-09T17:48:57.339Z,17.07
2022-11-09T17:51:23.682Z,17.00
2022-11-09T17:53:49.997Z,16.92
2022-11-09T17:56:16.427Z,16.87
2022-11-09T17:58:42.782Z,16.82
2022-11-09T18:01:09.247Z,16.79
2022-11-09T18:03:35.479Z,16.76
2022-11-09T18:06:01.839Z,16.69
2022-11-09T18:08:28.201Z,16.66
2022-11-09T18:10:54.557Z,16.67
2022-11-09T18:13:20.900Z,16.70
2022-11-09T18:15:47.244Z,16.75
2022-11-09T18:18:13.598Z,16.75
2022-11-09T18:20:39.931Z,16.73
2022-11-09T18:23:06.291Z,16.66
2022-11-09T18:25:32.639Z,16.58
2022-11-09T18:27:58.990Z,16.55
2022-11-09T18:30:25.324Z,16.54
2022-11-09T18:32:51.676Z,16.50
2022-11-09T18:35:18.018Z,16.44
2022-11-09T18:37:44.372Z,16.39
2022-11-09T18:40:10.688Z,16.36
2022-11-09T18:42:37.043Z,16.36
2022-11-09T18:45:03.423Z,16.35
2022-11-09T18:47:29.784Z,16.33
2022-11-09T18:49:56.104Z,16.25
2022-11-09T18:52:22.529Z,16.24
2022-11-09T18:54:48.973Z,16.26
2022-11-09T18:57:19.595Z,16.26
2022-11-09T18:59:41.634Z,16.25
2022-11-09T19:02:07.987Z,16.23
2022-11-09T19:04:34.340Z,16.19
2022-11-09T19:07:00.822Z,16.22
2022-11-09T19:09:27.081Z,16.20
2022-11-09T19:11:53.447Z,16.12
2022-11-09T19:14:19.785Z,16.10
2022-11-09T19:16:46.178Z,16.07
2022-11-09T19:19:12.491Z,16.04
2022-11-09T19:21:38.825Z,15.97
2022-11-09T19:24:05.149Z,15.92
2022-11-09T19:26:31.473Z,15.88
2022-11-09T19:28:57.838Z,15.83
2022-11-09T19:31:24.209Z,15.76
2022-11-09T19:33:50.525Z,15.70
2022-11-09T19:36:29.753Z,15.62
2022-11-09T19:38:43.210Z,15.59
2022-11-09T19:41:09.536Z,15.61
2022-11-09T19:43:35.864Z,15.58
2022-11-09T19:46:02.196Z,15.55
2022-11-09T19:48:28.553Z,15.58
2022-11-09T19:50:54.876Z,15.53
2022-11-09T19:53:21.236Z,15.45
2022-11-09T19:55:47.599Z,15.39
2022-11-09T19:58:13.985Z,15.36
2022-11-09T20:00:40.665Z,15.34
2022-11-09T20:03:06.987Z,15.28
2022-11-09T20:05:33.336Z,15.20
2022-11-09T20:07:59.666Z,15.16
2022-11-09T20:10:25.996Z,15.12
2022-11-09T20:12:52.350Z,15.12
2022-11-09T20:15:18.698Z,15.10
2022-11-09T20:17:45.103Z,15.04
2022-11-09T20:20:11.532Z,15.01
2022-11-09T20:22:37.930Z,15.02
2022-11-09T20:25:04.314Z,14.98
2022-11-09T20:27:32.300Z,14.94
2022-11-09T20:29:57.005Z,14.99
2022-11-09T20:32:23.391Z,14.98
2022-11-09T20:34:49.716Z,14.98
2022-11-09T20:37:16.055Z,14.99
2022-11-09T20:39:42.383Z,14.95
2022-11-09T20:42:08.786Z,14.89
2022-11-09T20:44:35.121Z,14.88
2022-11-09T20:47:01.455Z,14.86
2022-11-09T20:49:27.808Z,14.83
2022-11-09T20:51:54.158Z,14.82
2022-11-09T20:54:20.521Z,14.81
2022-11-09T20:56:46.905Z,14.78
2022-11-09T20:59:13.252Z,14.77
2022-11-09T21:01:39.612Z,14.75
2022-11-09T21:04:05.958Z,14.70
2022-11-09T21:06:32.327Z,14.68
2022-11-09T21:08:58.635Z,14.69
2022-11-09T21:11:24.986Z,14.69
2022-11-09T21:13:51.352Z,14.65
2022-11-09T21:16:18.072Z,14.60
2022-11-09T21:18:44.412Z,14.52
2022-11-09T21:21:10.736Z,14.52
2022-11-09T21:23:37.109Z,14.52
2022-11-09T21:26:03.462Z,14.54
2022-11-09T21:28:29.782Z,14.52
2022-11-09T21:30:56.100Z,14.48
2022-11-09T21:33:22.483Z,14.40
2022-11-09T21:35:48.819Z,14.39
2022-11-09T21:38:15.140Z,14.38
2022-11-09T21:40:41.477Z,14.38
2022-11-09T21:43:07.831Z,14.36
2022-11-09T21:45:34.162Z,14.33
2022-11-09T21:48:00.483Z,14.27
2022-11-09T21:50:26.833Z,14.22
2022-11-09T21:52:53.153Z,14.19
2022-11-09T21:55:19.575Z,14.18
2022-11-09T21:57:45.951Z,14.15
2022-11-09T22:00:12.264Z,14.10
2022-11-09T22:02:38.593Z,14.10
2022-11-09T22:05:04.939Z,14.07
2022-11-09T22:07:31.290Z,14.00
2022-11-09T22:10:09.840Z,13.95
2022-11-09T22:12:24.018Z,13.95
2022-11-09T22:14:50.374Z,13.91
2022-11-09T22:17:16.696Z,13.88
2022-11-09T22:19:43.070Z,13.84
2022-11-09T22:22:09.390Z,13.82
2022-11-09T22:24:35.710Z,13.78
2022-11-09T22:27:02.079Z,13.75
2022-11-09T22:29:28.457Z,13.74
2022-11-09T22:31:54.761Z,13.74
2022-11-09T22:34:21.109Z,13.70
2022-11-09T22:36:47.461Z,13.68
2022-11-09T22:39:13.808Z,13.63
2022-11-09T22:41:40.150Z,13.58
2022-11-09T22:44:06.464Z,13.57
2022-11-09T22:46:32.822Z,13.51
2022-11-09T22:48:59.161Z,13.45
2022-11-09T22:51:25.539Z,13.42
2022-11-09T22:53:51.894Z,13.39
2022-11-09T22:56:18.239Z,13.35
2022-11-09T22:58:44.557Z,13.32
2022-11-09T23:01:10.966Z,13.28
2022-11-09T23:03:37.260Z,13.25
2022-11-09T23:06:03.578Z,13.21
2022-11-09T23:08:32.142Z,13.20
2022-11-09T23:10:56.242Z,13.21
2022-11-09T23:13:22.867Z,13.20
2022-11-09T23:15:48.929Z,13.22
2022-11-09T23:18:15.274Z,13.21
2022-11-09T23:20:41.618Z,13.16
2022-11-09T23:23:07.957Z,13.11
2022-11-09T23:25:34.301Z,13.07
2022-11-09T23:28:00.655Z,13.06
2022-11-09T23:30:26.976Z,13.03
2022-11-09T23:32:53.435Z,12.97
2022-11-09T23:35:19.760Z,12.92
2022-11-09T23:37:46.099Z,12.85
2022-11-09T23:40:12.426Z,12.76
2022-11-09T23:42:38.808Z,12.70
2022-11-09T23:45:05.157Z,12.64
2022-11-09T23:47:31.497Z,12.65
2022-11-09T23:49:57.880Z,12.63
2022-11-09T23:52:24.198Z,12.62
2022-11-09T23:54:50.526Z,12.56
2022-11-09T23:57:16.881Z,12.52
2022-11-09T23:59:43.218Z,12.52
